Time;durP1;ratioP1;P1;durP2;ratioP2;P2;SDS_P1;SDS_P2;PMS_P1;PMS_P2;Temp;Humidity;BMP_temperature;BMP_pressure;BME280_temperature;BME280_humidity;BME280_pressure;Samples;Min_cycle;Max_cycle;Signal;HPM_P1;HPM_P2
2022/11/20 00:01:44;;;;;;;64.55;38.58;;;;;;;;;;5115667;28;20352;-70
2022/11/20 00:04:30;;;;;;;60.72;38.58;;;;;;;;;;5115796;28;20077;-69
2022/11/20 00:07:15;;;;;;;59.60;38.90;;;;;;;;;;5100277;28;20050;-70
2022/11/20 00:10:01;;;;;;;60.97;38.63;;;;;;;;;;5116069;28;20343;-70
2022/11/20 00:12:47;;;;;;;66.85;39.78;;;;;;;;;;5115490;28;20026;-69
2022/11/20 00:15:33;;;;;;;62.78;40.60;;;;;;;;;;5099490;28;20016;-69
2022/11/20 00:18:18;;;;;;;69.38;40.97;;;;;;;;;;5115145;28;20095;-70
2022/11/20 00:21:05;;;;;;;64.45;39.85;;;;;;;;;;5115289;28;20023;-69
2022/11/20 00:23:52;;;;;;;63.75;39.60;;;;;;;;;;5114628;28;20016;-69
2022/11/20 00:26:37;;;;;;;64.28;40.33;;;;;;;;;;5114871;28;20359;-69
2022/11/20 00:29:23;;;;;;;62.72;39.40;;;;;;;;;;5115923;28;20048;-69
2022/11/20 00:32:08;;;;;;;64.07;39.83;;;;;;;;;;5115799;28;20034;-68
2022/11/20 00:34:54;;;;;;;60.83;40.10;;;;;;;;;;5115529;28;20028;-69
2022/11/20 00:37:39;;;;;;;63.53;39.83;;;;;;;;;;5114617;28;20413;-69
2022/11/20 00:40:25;;;;;;;63.35;40.28;;;;;;;;;;5115293;28;20431;-69
2022/11/20 00:43:10;;;;;;;63.33;39.92;;;;;;;;;;5114678;28;20355;-69
2022/11/20 00:45:57;;;;;;;65.78;40.00;;;;;;;;;;5115644;28;20053;-68
2022/11/20 00:48:43;;;;;;;60.40;37.45;;;;;;;;;;5114824;28;20348;-69
2022/11/20 00:51:29;;;;;;;60.90;37.83;;;;;;;;;;5099803;28;20055;-78
2022/11/20 00:54:14;;;;;;;59.90;37.28;;;;;;;;;;5100068;28;20016;-75
2022/11/20 00:57:00;;;;;;;58.00;36.53;;;;;;;;;;5100509;28;20466;-74
2022/11/20 00:59:45;;;;;;;57.38;35.78;;;;;;;;;;5101072;28;20057;-75
2022/11/20 01:02:31;;;;;;;56.72;36.08;;;;;;;;;;5099691;28;20019;-75
2022/11/20 01:05:17;;;;;;;58.95;36.70;;;;;;;;;;5114527;28;20090;-75
2022/11/20 01:08:02;;;;;;;57.13;35.42;;;;;;;;;;5114680;28;20023;-76
2022/11/20 01:10:48;;;;;;;57.78;36.72;;;;;;;;;;5114578;28;20019;-74
2022/11/20 01:13:36;;;;;;;61.92;36.25;;;;;;;;;;5115076;28;20016;-73
2022/11/20 01:16:24;;;;;;;60.28;35.63;;;;;;;;;;5114327;28;20166;-73
2022/11/20 01:19:11;;;;;;;61.30;36.13;;;;;;;;;;5099643;28;20089;-74
2022/11/20 01:21:57;;;;;;;63.53;37.72;;;;;;;;;;5099689;28;20019;-73
2022/11/20 01:24:43;;;;;;;58.05;35.30;;;;;;;;;;5114757;28;20086;-73
2022/11/20 01:27:28;;;;;;;61.97;36.80;;;;;;;;;;5099952;28;20077;-74
2022/11/20 01:30:14;;;;;;;72.68;38.72;;;;;;;;;;5100128;28;20070;-73
2022/11/20 01:32:59;;;;;;;64.82;36.55;;;;;;;;;;5114187;28;20023;-73
2022/11/20 01:35:45;;;;;;;59.95;35.97;;;;;;;;;;5114614;28;20062;-73
2022/11/20 01:38:30;;;;;;;58.78;34.97;;;;;;;;;;5114463;28;20039;-74
2022/11/20 01:44:22;;;;;;;60.78;36.45;;;;;;;;;;5114173;28;20032;-75
2022/11/20 01:47:08;;;;;;;62.40;35.03;;;;;;;;;;5113973;28;20489;-74
2022/11/20 01:49:58;;;;;;;58.78;33.95;;;;;;;;;;5100944;28;20107;-74
2022/11/20 01:52:49;;;;;;;65.00;36.80;;;;;;;;;;5112846;28;20016;-73
2022/11/20 01:55:39;;;;;;;57.50;34.03;;;;;;;;;;5098890;28;20023;-73
2022/11/20 01:58:33;;;;;;;68.05;37.72;;;;;;;;;;5112825;28;20035;-74
2022/11/20 02:01:20;;;;;;;62.97;36.25;;;;;;;;;;5118442;28;20023;-74
2022/11/20 02:04:07;;;;;;;67.85;36.70;;;;;;;;;;5118255;28;20019;-73
2022/11/20 02:07:04;;;;;;;63.97;35.90;;;;;;;;;;5104251;28;20047;-74
2022/11/20 02:09:51;;;;;;;64.82;32.90;;;;;;;;;;5118195;28;20049;-74
2022/11/20 02:15:40;;;;;;;54.22;30.25;;;;;;;;;;5117639;28;20020;-73
2022/11/20 02:18:26;;;;;;;55.13;29.20;;;;;;;;;;5101751;28;20035;-73
2022/11/20 02:21:30;;;;;;;49.67;27.00;;;;;;;;;;5117945;28;20019;-73
2022/11/20 02:24:17;;;;;;;50.85;28.98;;;;;;;;;;5115977;28;20019;-74
2022/11/20 02:27:06;;;;;;;54.30;29.35;;;;;;;;;;5117389;28;20075;-74
2022/11/20 02:29:59;;;;;;;51.33;29.48;;;;;;;;;;5116866;28;20012;-74
2022/11/20 02:32:44;;;;;;;59.40;31.92;;;;;;;;;;5102004;28;20073;-75
2022/11/20 02:35:30;;;;;;;55.08;29.83;;;;;;;;;;5116636;28;20024;-74
2022/11/20 02:38:16;;;;;;;60.33;31.30;;;;;;;;;;5116108;28;20118;-73
2022/11/20 02:41:01;;;;;;;46.70;27.90;;;;;;;;;;5117981;28;20031;-74
2022/11/20 02:43:47;;;;;;;54.15;28.73;;;;;;;;;;5117536;28;20020;-75
2022/11/20 02:46:33;;;;;;;52.15;29.48;;;;;;;;;;5102495;28;20372;-74
2022/11/20 02:49:18;;;;;;;53.45;29.33;;;;;;;;;;5101766;28;20435;-72
2022/11/20 02:52:04;;;;;;;54.00;30.20;;;;;;;;;;5097837;28;20111;-75
2022/11/20 02:54:50;;;;;;;51.90;28.92;;;;;;;;;;5116973;28;20023;-74
2022/11/20 02:57:35;;;;;;;47.83;28.70;;;;;;;;;;5116760;28;20049;-74
2022/11/20 03:00:21;;;;;;;52.90;29.55;;;;;;;;;;5117339;28;20024;-73
2022/11/20 03:03:06;;;;;;;55.08;29.67;;;;;;;;;;5116923;28;20073;-74
2022/11/20 03:05:52;;;;;;;61.25;30.08;;;;;;;;;;5116611;28;20023;-74
2022/11/20 03:08:37;;;;;;;49.70;28.48;;;;;;;;;;5116991;28;20437;-76
2022/11/20 03:11:23;;;;;;;54.60;29.58;;;;;;;;;;5115685;28;20038;-75
2022/11/20 03:14:09;;;;;;;52.22;28.58;;;;;;;;;;5116761;28;20401;-75
2022/11/20 03:16:55;;;;;;;50.97;29.20;;;;;;;;;;5116002;28;20074;-74
2022/11/20 03:19:40;;;;;;;59.15;31.27;;;;;;;;;;5116938;28;20357;-76
2022/11/20 03:22:28;;;;;;;66.95;33.58;;;;;;;;;;5117450;28;20102;-75
2022/11/20 03:25:13;;;;;;;63.13;32.53;;;;;;;;;;5116146;28;20024;-74
2022/11/20 03:27:59;;;;;;;66.20;31.60;;;;;;;;;;5094832;28;20497;-75
2022/11/20 03:30:45;;;;;;;60.15;32.42;;;;;;;;;;5116705;28;20019;-74
2022/11/20 03:33:30;;;;;;;63.75;32.78;;;;;;;;;;5116198;28;20011;-74
2022/11/20 03:36:16;;;;;;;55.50;32.08;;;;;;;;;;5116240;28;20047;-74
2022/11/20 03:39:02;;;;;;;56.67;32.10;;;;;;;;;;5116572;28;20024;-75
2022/11/20 03:41:48;;;;;;;63.05;33.10;;;;;;;;;;5115065;28;20020;-74
2022/11/20 03:44:33;;;;;;;64.53;33.40;;;;;;;;;;5115941;28;20349;-74
2022/11/20 03:47:19;;;;;;;62.20;34.20;;;;;;;;;;5115983;28;20070;-75
2022/11/20 03:50:05;;;;;;;60.20;32.13;;;;;;;;;;5116143;28;20069;-74
2022/11/20 03:52:50;;;;;;;62.78;33.53;;;;;;;;;;5102032;28;20316;-74
2022/11/20 03:55:36;;;;;;;60.00;32.50;;;;;;;;;;5116055;28;20084;-75
2022/11/20 03:58:21;;;;;;;65.45;32.67;;;;;;;;;;5102054;28;20368;-74
2022/11/20 04:01:08;;;;;;;54.90;32.42;;;;;;;;;;5116390;28;20110;-74
2022/11/20 04:03:54;;;;;;;68.22;34.10;;;;;;;;;;5115837;28;20023;-74
2022/11/20 04:06:40;;;;;;;67.07;34.28;;;;;;;;;;5100679;28;20176;-76
2022/11/20 04:09:26;;;;;;;66.32;33.65;;;;;;;;;;5115089;28;20344;-73
2022/11/20 04:12:11;;;;;;;63.33;35.35;;;;;;;;;;5115326;28;20027;-75
2022/11/20 04:14:57;;;;;;;63.50;33.95;;;;;;;;;;5115157;28;20020;-74
2022/11/20 04:17:43;;;;;;;72.80;37.17;;;;;;;;;;5115817;28;20412;-74
2022/11/20 04:20:28;;;;;;;65.47;36.42;;;;;;;;;;5116026;28;20020;-74
2022/11/20 04:23:14;;;;;;;69.68;37.85;;;;;;;;;;5115223;28;20023;-73
2022/11/20 04:26:03;;;;;;;70.03;37.78;;;;;;;;;;5094059;28;20103;-74
2022/11/20 04:28:49;;;;;;;68.90;37.17;;;;;;;;;;5113716;28;20015;-75
2022/11/20 04:31:35;;;;;;;70.35;38.15;;;;;;;;;;5113762;28;20487;-73
2022/11/20 04:34:20;;;;;;;73.20;38.42;;;;;;;;;;5100706;28;20027;-75
2022/11/20 04:37:06;;;;;;;73.90;38.17;;;;;;;;;;5115451;28;20104;-74
2022/11/20 04:39:51;;;;;;;72.28;38.33;;;;;;;;;;5114805;28;20020;-74
2022/11/20 04:42:37;;;;;;;69.80;37.38;;;;;;;;;;5115225;28;20398;-74
2022/11/20 04:45:23;;;;;;;77.93;39.67;;;;;;;;;;5114805;28;20034;-75
2022/11/20 04:48:08;;;;;;;81.05;39.30;;;;;;;;;;5113377;28;20007;-74
2022/11/20 04:50:54;;;;;;;78.32;40.58;;;;;;;;;;5093034;28;20439;-75
2022/11/20 04:53:40;;;;;;;78.47;39.63;;;;;;;;;;5099421;28;20028;-74
2022/11/20 04:56:25;;;;;;;74.93;38.38;;;;;;;;;;5115448;28;20034;-75
2022/11/20 04:59:11;;;;;;;72.85;37.03;;;;;;;;;;5114692;28;20081;-75
2022/11/20 05:01:56;;;;;;;64.68;34.97;;;;;;;;;;5115042;28;20020;-74
2022/11/20 05:04:42;;;;;;;63.28;34.83;;;;;;;;;;5114641;28;20019;-74
2022/11/20 05:07:27;;;;;;;66.60;35.70;;;;;;;;;;5115087;28;20015;-75
2022/11/20 05:10:13;;;;;;;81.35;38.60;;;;;;;;;;5098645;28;20024;-74
2022/11/20 05:12:58;;;;;;;75.63;38.45;;;;;;;;;;5093334;28;20352;-74
2022/11/20 05:15:44;;;;;;;72.82;38.83;;;;;;;;;;5114565;28;20098;-75
2022/11/20 05:18:29;;;;;;;74.07;37.92;;;;;;;;;;5099674;28;20051;-74
2022/11/20 05:21:16;;;;;;;72.90;38.78;;;;;;;;;;5115191;28;20443;-73
2022/11/20 05:24:01;;;;;;;70.20;36.03;;;;;;;;;;5099827;28;20168;-74
2022/11/20 05:26:47;;;;;;;71.88;35.50;;;;;;;;;;5114073;28;20027;-74
2022/11/20 05:29:32;;;;;;;76.97;37.22;;;;;;;;;;5114680;28;20015;-74
2022/11/20 05:32:18;;;;;;;73.47;37.60;;;;;;;;;;5114558;28;20022;-75
2022/11/20 05:35:04;;;;;;;72.88;37.95;;;;;;;;;;5113732;28;20023;-74
2022/11/20 05:37:49;;;;;;;91.85;41.55;;;;;;;;;;5118133;28;20092;-75
2022/11/20 05:40:35;;;;;;;93.55;42.67;;;;;;;;;;5118680;28;20030;-74
2022/11/20 05:43:21;;;;;;;68.32;36.60;;;;;;;;;;5103524;28;20048;-73
2022/11/20 05:46:07;;;;;;;67.30;36.00;;;;;;;;;;5118738;28;20329;-75
2022/11/20 05:48:53;;;;;;;76.38;35.42;;;;;;;;;;5118387;28;20034;-73
2022/11/20 05:51:38;;;;;;;74.68;37.03;;;;;;;;;;5102687;28;20398;-73
2022/11/20 05:54:24;;;;;;;64.85;34.20;;;;;;;;;;5118498;28;20028;-74
2022/11/20 05:57:09;;;;;;;64.70;33.10;;;;;;;;;;5118170;28;20026;-74
2022/11/20 05:59:55;;;;;;;56.17;30.65;;;;;;;;;;5118535;28;20435;-73
2022/11/20 06:02:41;;;;;;;61.38;31.05;;;;;;;;;;5118227;28;20012;-75
2022/11/20 06:05:26;;;;;;;58.85;29.98;;;;;;;;;;5117658;28;20019;-73
2022/11/20 06:08:12;;;;;;;57.58;31.00;;;;;;;;;;5116586;28;20107;-74
2022/11/20 06:10:58;;;;;;;58.22;30.48;;;;;;;;;;5118354;28;20015;-73
2022/11/20 06:13:45;;;;;;;61.42;31.33;;;;;;;;;;5116295;28;20027;-74
2022/11/20 06:16:30;;;;;;;68.60;30.67;;;;;;;;;;5117625;28;20052;-73
2022/11/20 06:19:16;;;;;;;62.75;30.88;;;;;;;;;;5117628;28;20024;-74
2022/11/20 06:22:02;;;;;;;51.53;28.15;;;;;;;;;;5111644;28;20333;-74
2022/11/20 06:24:47;;;;;;;55.75;28.35;;;;;;;;;;5118464;28;20034;-74
2022/11/20 06:27:33;;;;;;;59.05;27.13;;;;;;;;;;5117608;28;20023;-73
2022/11/20 06:30:18;;;;;;;49.70;26.73;;;;;;;;;;5117647;28;20110;-74
2022/11/20 06:33:04;;;;;;;51.03;26.00;;;;;;;;;;5117861;28;20023;-74
2022/11/20 06:35:49;;;;;;;50.67;26.90;;;;;;;;;;5116846;28;20047;-74
2022/11/20 06:38:35;;;;;;;58.03;27.05;;;;;;;;;;5103586;28;20032;-75
2022/11/20 06:41:21;;;;;;;50.03;25.45;;;;;;;;;;5117881;28;20110;-74
2022/11/20 06:44:07;;;;;;;50.60;25.00;;;;;;;;;;5117186;28;20011;-74
2022/11/20 06:46:53;;;;;;;51.08;25.23;;;;;;;;;;5101309;28;20027;-74
2022/11/20 06:49:38;;;;;;;48.33;24.88;;;;;;;;;;5117368;28;20020;-75
2022/11/20 06:52:24;;;;;;;41.95;23.17;;;;;;;;;;5117531;28;20011;-75
2022/11/20 06:55:09;;;;;;;44.67;23.40;;;;;;;;;;5103117;28;20031;-75
2022/11/20 06:57:55;;;;;;;42.05;23.23;;;;;;;;;;5117313;28;20075;-75
2022/11/20 07:00:40;;;;;;;45.03;21.60;;;;;;;;;;5116706;28;20416;-75
2022/11/20 07:03:26;;;;;;;46.33;22.40;;;;;;;;;;5101748;28;20132;-76
2022/11/20 07:06:12;;;;;;;40.05;21.33;;;;;;;;;;5117060;28;20348;-74
2022/11/20 07:08:57;;;;;;;36.35;20.77;;;;;;;;;;5101248;28;20481;-74
2022/11/20 07:11:43;;;;;;;40.88;21.63;;;;;;;;;;5116573;28;20037;-75
2022/11/20 07:14:28;;;;;;;42.03;21.05;;;;;;;;;;5117141;28;20031;-74
2022/11/20 07:17:14;;;;;;;43.13;23.85;;;;;;;;;;5116535;28;20020;-74
2022/11/20 07:19:59;;;;;;;44.97;21.73;;;;;;;;;;5116646;28;20011;-74
2022/11/20 07:22:45;;;;;;;51.15;22.35;;;;;;;;;;5117118;28;20339;-75
2022/11/20 07:25:31;;;;;;;39.50;21.20;;;;;;;;;;5117395;28;20023;-73
2022/11/20 07:28:16;;;;;;;40.08;20.83;;;;;;;;;;5116644;28;20360;-74
2022/11/20 07:31:02;;;;;;;43.40;21.10;;;;;;;;;;5116909;28;20023;-74
2022/11/20 07:33:48;;;;;;;42.33;21.08;;;;;;;;;;5116895;28;20073;-75
2022/11/20 07:36:34;;;;;;;41.28;21.52;;;;;;;;;;5116926;28;20040;-74
2022/11/20 07:39:19;;;;;;;49.25;21.15;;;;;;;;;;5116610;28;20051;-73
2022/11/20 07:42:08;;;;;;;46.40;21.27;;;;;;;;;;5116071;28;20024;-74
2022/11/20 07:44:53;;;;;;;42.35;20.40;;;;;;;;;;5116024;28;20508;-75
2022/11/20 07:47:39;;;;;;;43.67;21.42;;;;;;;;;;5116857;28;20023;-74
2022/11/20 07:50:24;;;;;;;50.53;23.48;;;;;;;;;;5115734;28;20050;-74
2022/11/20 07:53:12;;;;;;;42.30;22.15;;;;;;;;;;5115658;28;20110;-74
2022/11/20 07:56:01;;;;;;;53.58;23.08;;;;;;;;;;5115711;28;20023;-74
2022/11/20 07:58:47;;;;;;;50.03;24.65;;;;;;;;;;5115974;28;20432;-75
2022/11/20 08:01:32;;;;;;;48.33;22.88;;;;;;;;;;5116258;28;20027;-75
2022/11/20 08:04:18;;;;;;;50.00;24.45;;;;;;;;;;5115821;28;20015;-75
2022/11/20 08:07:04;;;;;;;45.95;23.80;;;;;;;;;;5100734;28;20447;-74
2022/11/20 08:09:49;;;;;;;46.65;25.13;;;;;;;;;;5100708;28;20031;-75
2022/11/20 08:15:39;;;;;;;47.50;22.02;;;;;;;;;;5116271;28;20039;-76
2022/11/20 08:18:25;;;;;;;41.95;22.45;;;;;;;;;;5101036;28;20094;-75
2022/11/20 08:21:10;;;;;;;40.95;22.85;;;;;;;;;;5100144;28;20360;-74
2022/11/20 08:23:56;;;;;;;41.13;21.20;;;;;;;;;;5116305;28;20016;-75
2022/11/20 08:26:42;;;;;;;43.38;22.30;;;;;;;;;;5115159;28;20093;-74
2022/11/20 08:29:28;;;;;;;58.60;28.80;;;;;;;;;;5100772;28;20099;-73
2022/11/20 08:32:13;;;;;;;39.47;19.60;;;;;;;;;;5100406;28;20072;-74
2022/11/20 08:34:59;;;;;;;37.47;20.33;;;;;;;;;;5115608;28;20080;-74
2022/11/20 08:37:48;;;;;;;40.20;20.83;;;;;;;;;;5100101;28;20081;-74
2022/11/20 08:40:33;;;;;;;42.78;22.90;;;;;;;;;;5115130;28;20023;-73
2022/11/20 08:43:19;;;;;;;39.42;21.65;;;;;;;;;;5100611;28;20516;-74
2022/11/20 08:46:04;;;;;;;41.42;21.70;;;;;;;;;;5100491;28;20031;-75
2022/11/20 08:48:50;;;;;;;40.85;21.85;;;;;;;;;;5117117;28;20027;-74
2022/11/20 08:51:36;;;;;;;39.35;20.75;;;;;;;;;;5115482;28;20043;-74
2022/11/20 08:54:22;;;;;;;36.38;19.80;;;;;;;;;;5115510;28;20061;-74
2022/11/20 08:57:08;;;;;;;40.35;23.15;;;;;;;;;;5114428;28;20427;-73
2022/11/20 08:59:53;;;;;;;41.40;21.83;;;;;;;;;;5115037;28;20427;-74
2022/11/20 09:02:39;;;;;;;52.40;29.15;;;;;;;;;;5100569;28;20068;-74
2022/11/20 09:05:24;;;;;;;46.75;25.42;;;;;;;;;;5114337;28;20019;-72
2022/11/20 09:08:10;;;;;;;43.80;23.50;;;;;;;;;;5100059;28;20062;-74
2022/11/20 09:10:56;;;;;;;42.80;22.15;;;;;;;;;;5114675;28;20035;-74
2022/11/20 09:13:42;;;;;;;39.58;22.50;;;;;;;;;;5116508;28;20528;-75
2022/11/20 09:16:28;;;;;;;35.33;20.38;;;;;;;;;;5114621;28;20028;-75
2022/11/20 09:19:13;;;;;;;35.33;19.23;;;;;;;;;;5114062;28;20027;-74
2022/11/20 09:21:59;;;;;;;35.60;21.10;;;;;;;;;;5114838;28;20024;-74
2022/11/20 09:24:45;;;;;;;37.90;21.15;;;;;;;;;;5114696;28;20051;-75
2022/11/20 09:27:31;;;;;;;37.28;20.90;;;;;;;;;;5115500;28;20111;-74
2022/11/20 09:30:16;;;;;;;39.10;21.70;;;;;;;;;;5114347;28;20123;-74
2022/11/20 09:33:04;;;;;;;37.10;20.30;;;;;;;;;;5114916;28;20102;-76
2022/11/20 09:35:49;;;;;;;38.83;20.67;;;;;;;;;;5113189;27;20019;-75
2022/11/20 09:38:35;;;;;;;39.90;21.75;;;;;;;;;;5094450;28;20028;-75
2022/11/20 09:41:45;;;;;;;45.00;23.60;;;;;;;;;;5093720;28;20174;-75
2022/11/20 09:44:43;;;;;;;40.22;22.10;;;;;;;;;;5094906;28;20508;-74
2022/11/20 09:48:09;;;;;;;40.15;21.85;;;;;;;;;;5079149;28;20032;-75
2022/11/20 09:51:00;;;;;;;41.63;22.50;;;;;;;;;;4999171;28;20034;-76
2022/11/20 09:53:59;;;;;;;43.47;24.05;;;;;;;;;;5011859;28;20026;-75
2022/11/20 09:56:50;;;;;;;42.78;22.52;;;;;;;;;;5093741;28;20030;-77
2022/11/20 09:59:40;;;;;;;37.30;21.40;;;;;;;;;;5079249;28;20111;-74
2022/11/20 10:02:30;;;;;;;40.00;22.45;;;;;;;;;;5094891;28;20077;-76
2022/11/20 10:05:27;;;;;;;40.42;23.60;;;;;;;;;;5079256;28;20031;-76
2022/11/20 10:08:13;;;;;;;41.03;23.27;;;;;;;;;;5093029;28;20069;-75
2022/11/20 10:11:18;;;;;;;35.70;22.13;;;;;;;;;;5093157;28;20348;-75
2022/11/20 10:14:18;;;;;;;36.53;22.52;;;;;;;;;;5093592;28;20020;-75
2022/11/20 10:17:21;;;;;;;41.72;25.02;;;;;;;;;;5092993;28;20024;-75
2022/11/20 10:20:19;;;;;;;35.78;22.38;;;;;;;;;;5092832;28;20023;-75
2022/11/20 10:23:18;;;;;;;45.67;25.35;;;;;;;;;;5096915;28;20077;-75
2022/11/20 10:26:16;;;;;;;41.95;23.85;;;;;;;;;;5082518;28;20448;-76
2022/11/20 10:29:05;;;;;;;39.83;23.90;;;;;;;;;;5096229;28;20419;-75
2022/11/20 10:31:54;;;;;;;36.28;22.25;;;;;;;;;;5096436;28;20024;-75
2022/11/20 10:34:49;;;;;;;39.78;23.20;;;;;;;;;;5097483;28;20515;-76
2022/11/20 10:37:37;;;;;;;36.83;22.75;;;;;;;;;;5111445;28;20077;-76
2022/11/20 10:40:27;;;;;;;35.08;21.65;;;;;;;;;;5118163;28;20107;-75
2022/11/20 10:43:15;;;;;;;40.78;23.63;;;;;;;;;;5117570;28;20024;-74
2022/11/20 10:46:15;;;;;;;42.33;23.52;;;;;;;;;;5117338;28;20020;-75
2022/11/20 10:49:03;;;;;;;46.03;25.80;;;;;;;;;;5117569;28;20015;-75
2022/11/20 10:51:54;;;;;;;46.45;24.23;;;;;;;;;;5117076;28;20045;-76
2022/11/20 10:54:43;;;;;;;44.50;25.05;;;;;;;;;;5117243;28;20508;-75
2022/11/20 10:57:34;;;;;;;45.25;24.98;;;;;;;;;;5117768;28;20031;-74
2022/11/20 11:00:20;;;;;;;39.40;23.77;;;;;;;;;;5117207;28;20020;-75
2022/11/20 11:03:20;;;;;;;51.00;26.42;;;;;;;;;;5116843;28;20480;-75
2022/11/20 11:06:21;;;;;;;54.17;27.15;;;;;;;;;;5116736;28;20019;-75
2022/11/20 11:09:16;;;;;;;54.90;27.98;;;;;;;;;;5117056;28;20012;-74
2022/11/20 11:12:05;;;;;;;52.08;27.05;;;;;;;;;;5117735;28;20016;-75
2022/11/20 11:14:52;;;;;;;48.70;27.55;;;;;;;;;;5116506;28;20370;-74
2022/11/20 11:17:45;;;;;;;53.15;28.13;;;;;;;;;;5115771;28;20019;-74
2022/11/20 11:20:32;;;;;;;52.40;27.88;;;;;;;;;;5116756;28;20065;-75
2022/11/20 11:23:37;;;;;;;52.40;28.75;;;;;;;;;;5116868;28;20031;-73
2022/11/20 11:26:23;;;;;;;61.53;32.80;;;;;;;;;;5101814;28;20026;-72
2022/11/20 11:29:16;;;;;;;53.08;27.98;;;;;;;;;;5101871;28;20024;-75
2022/11/20 11:32:05;;;;;;;52.67;27.83;;;;;;;;;;5115388;28;20104;-73
2022/11/20 11:35:04;;;;;;;56.05;30.05;;;;;;;;;;5116190;28;20027;-74
2022/11/20 11:37:51;;;;;;;54.78;29.40;;;;;;;;;;5115802;28;20433;-74
2022/11/20 11:40:38;;;;;;;54.30;28.90;;;;;;;;;;5101729;28;20028;-73
2022/11/20 11:46:35;;;;;;;51.78;28.58;;;;;;;;;;5093685;28;20115;-74
2022/11/20 11:49:22;;;;;;;60.42;31.15;;;;;;;;;;5101837;28;20051;-74
2022/11/20 11:52:07;;;;;;;57.25;32.28;;;;;;;;;;5116437;28;20023;-73
2022/11/20 11:54:54;;;;;;;60.83;32.88;;;;;;;;;;5100911;28;20109;-74
2022/11/20 11:57:49;;;;;;;63.30;32.88;;;;;;;;;;5115536;28;20062;-74
2022/11/20 12:00:36;;;;;;;63.75;32.50;;;;;;;;;;5115656;28;20030;-74
2022/11/20 12:03:27;;;;;;;63.10;33.55;;;;;;;;;;5102173;28;20027;-72
2022/11/20 12:06:14;;;;;;;78.32;44.85;;;;;;;;;;5100478;28;20051;-72
2022/11/20 12:09:04;;;;;;;63.72;34.63;;;;;;;;;;5115677;28;20019;-72
2022/11/20 12:11:53;;;;;;;62.28;33.80;;;;;;;;;;5115347;28;20016;-73
2022/11/20 12:14:41;;;;;;;70.63;36.80;;;;;;;;;;5101619;28;20161;-73
2022/11/20 12:17:27;;;;;;;61.25;33.80;;;;;;;;;;5114925;28;20015;-73
2022/11/20 12:20:13;;;;;;;70.72;35.28;;;;;;;;;;5115183;28;20448;-69
2022/11/20 12:23:10;;;;;;;67.53;36.55;;;;;;;;;;5115943;28;20103;-72
2022/11/20 12:26:00;;;;;;;64.20;34.65;;;;;;;;;;5101354;28;20460;-74
2022/11/20 12:28:56;;;;;;;66.13;35.13;;;;;;;;;;5101571;28;20023;-73
2022/11/20 12:31:41;;;;;;;62.38;33.58;;;;;;;;;;5115623;28;20030;-73
2022/11/20 12:34:45;;;;;;;60.22;32.92;;;;;;;;;;5115460;28;20016;-73
2022/11/20 12:37:46;;;;;;;63.88;36.38;;;;;;;;;;5101012;28;20052;-72
2022/11/20 12:40:32;;;;;;;74.40;38.97;;;;;;;;;;5115569;28;20036;-73
2022/11/20 12:46:41;;;;;;;77.95;40.35;;;;;;;;;;5115555;28;20328;-73
2022/11/20 12:49:29;;;;;;;65.40;36.20;;;;;;;;;;5115325;28;20012;-73
2022/11/20 12:52:29;;;;;;;68.85;35.58;;;;;;;;;;5113996;28;20440;-73
2022/11/20 12:55:17;;;;;;;65.97;34.00;;;;;;;;;;5115467;28;20058;-73
2022/11/20 12:58:08;;;;;;;66.13;35.42;;;;;;;;;;5113821;28;20020;-73
2022/11/20 13:01:05;;;;;;;72.25;38.58;;;;;;;;;;5114371;28;20478;-72
2022/11/20 13:03:53;;;;;;;65.70;36.75;;;;;;;;;;5114765;28;20024;-72
2022/11/20 13:06:41;;;;;;;74.05;37.47;;;;;;;;;;5115073;28;20038;-73
2022/11/20 13:09:27;;;;;;;83.97;41.03;;;;;;;;;;5115324;28;20019;-72
2022/11/20 13:12:33;;;;;;;70.25;38.25;;;;;;;;;;5114556;28;20020;-72
2022/11/20 13:15:45;;;;;;;65.97;35.83;;;;;;;;;;5115059;28;20030;-72
2022/11/20 13:18:36;;;;;;;71.13;40.28;;;;;;;;;;5090239;28;20031;-72
2022/11/20 13:21:23;;;;;;;69.80;38.88;;;;;;;;;;5114003;28;20023;-72
2022/11/20 13:24:29;;;;;;;73.43;39.00;;;;;;;;;;5114287;28;20019;-72
2022/11/20 13:27:15;;;;;;;70.35;37.83;;;;;;;;;;5114306;28;20362;-72
2022/11/20 13:30:12;;;;;;;68.57;37.47;;;;;;;;;;5114654;28;20034;-72
2022/11/20 13:33:01;;;;;;;71.68;38.17;;;;;;;;;;5114945;28;20015;-73
2022/11/20 13:35:54;;;;;;;68.95;39.33;;;;;;;;;;5100127;27;20027;-73
2022/11/20 13:38:42;;;;;;;59.55;36.42;;;;;;;;;;5115266;28;20039;-74
2022/11/20 13:41:28;;;;;;;63.03;38.20;;;;;;;;;;5114506;28;20073;-73
2022/11/20 13:44:29;;;;;;;64.70;36.03;;;;;;;;;;5113618;28;20447;-73
2022/11/20 13:47:25;;;;;;;60.95;36.75;;;;;;;;;;5099488;28;20024;-72
2022/11/20 13:50:14;;;;;;;66.97;36.47;;;;;;;;;;5114067;28;20107;-72
2022/11/20 13:53:09;;;;;;;64.45;36.33;;;;;;;;;;5114608;28;20065;-72
2022/11/20 13:55:58;;;;;;;59.97;34.28;;;;;;;;;;5115299;28;20047;-73
2022/11/20 13:58:44;;;;;;;55.83;34.50;;;;;;;;;;5103102;28;20023;-73
2022/11/20 14:01:34;;;;;;;65.88;38.10;;;;;;;;;;5117561;28;20023;-74
2022/11/20 14:04:26;;;;;;;62.83;36.10;;;;;;;;;;5117964;28;20027;-72
2022/11/20 14:07:12;;;;;;;68.82;37.20;;;;;;;;;;5117631;28;20412;-72
2022/11/20 14:09:58;;;;;;;66.60;39.03;;;;;;;;;;5102882;28;20023;-73
2022/11/20 14:12:43;;;;;;;60.13;36.83;;;;;;;;;;5118342;28;20011;-73
2022/11/20 14:15:33;;;;;;;66.95;38.38;;;;;;;;;;5118772;28;20024;-74
2022/11/20 14:18:21;;;;;;;68.25;37.40;;;;;;;;;;5117221;28;20023;-73
2022/11/20 14:21:09;;;;;;;56.25;33.05;;;;;;;;;;5102488;28;20115;-74
2022/11/20 14:24:10;;;;;;;71.10;40.22;;;;;;;;;;5117228;28;20015;-73
2022/11/20 14:26:55;;;;;;;61.45;35.53;;;;;;;;;;5116910;28;20023;-73
2022/11/20 14:29:42;;;;;;;71.57;38.95;;;;;;;;;;5117717;28;20051;-73
2022/11/20 14:32:29;;;;;;;66.22;37.47;;;;;;;;;;5102628;28;20408;-73
2022/11/20 14:35:19;;;;;;;72.72;37.92;;;;;;;;;;5117345;28;20062;-73
2022/11/20 14:38:10;;;;;;;64.85;35.78;;;;;;;;;;5116416;28;20048;-72
2022/11/20 14:41:06;;;;;;;65.22;35.33;;;;;;;;;;5116745;28;20106;-74
2022/11/20 14:43:56;;;;;;;61.85;35.40;;;;;;;;;;5117263;28;20024;-73
2022/11/20 14:46:42;;;;;;;63.15;34.38;;;;;;;;;;5103460;28;20069;-73
2022/11/20 14:49:29;;;;;;;58.08;33.45;;;;;;;;;;5102816;28;20098;-73
2022/11/20 14:52:16;;;;;;;49.83;31.33;;;;;;;;;;5102196;28;20062;-73
2022/11/20 14:55:02;;;;;;;51.65;32.95;;;;;;;;;;5102286;28;20028;-73
2022/11/20 14:57:53;;;;;;;51.03;30.60;;;;;;;;;;5117451;28;20023;-73
2022/11/20 15:00:39;;;;;;;45.63;29.58;;;;;;;;;;5117109;28;20016;-73
2022/11/20 15:03:38;;;;;;;47.70;29.50;;;;;;;;;;5117942;28;20019;-74
2022/11/20 15:06:25;;;;;;;44.95;28.83;;;;;;;;;;5101358;28;20080;-73
2022/11/20 15:09:14;;;;;;;45.67;29.38;;;;;;;;;;5115895;28;20024;-73
2022/11/20 15:12:01;;;;;;;47.00;29.92;;;;;;;;;;5116979;28;20523;-73
2022/11/20 15:14:47;;;;;;;43.20;28.27;;;;;;;;;;5117911;28;20016;-73
2022/11/20 15:17:36;;;;;;;47.80;30.45;;;;;;;;;;5118823;28;20027;-72
2022/11/20 15:20:23;;;;;;;43.40;29.25;;;;;;;;;;5120218;28;20132;-74
2022/11/20 15:23:13;;;;;;;44.85;28.75;;;;;;;;;;5117297;28;20011;-73
2022/11/20 15:25:59;;;;;;;47.58;29.95;;;;;;;;;;5101829;28;20027;-74
2022/11/20 15:28:47;;;;;;;55.15;34.38;;;;;;;;;;5117267;28;20016;-74
2022/11/20 15:31:32;;;;;;;54.83;33.03;;;;;;;;;;5101710;28;20019;-73
2022/11/20 15:34:18;;;;;;;53.47;33.05;;;;;;;;;;5102829;28;20027;-74
2022/11/20 15:37:04;;;;;;;54.60;32.65;;;;;;;;;;5115891;28;20054;-74
2022/11/20 15:39:49;;;;;;;50.42;30.60;;;;;;;;;;5116816;28;20061;-72
2022/11/20 15:42:35;;;;;;;43.45;29.55;;;;;;;;;;5102768;28;20020;-74
2022/11/20 15:45:20;;;;;;;47.03;29.90;;;;;;;;;;5102302;28;20020;-74
2022/11/20 15:48:11;;;;;;;48.95;29.92;;;;;;;;;;5100833;28;20062;-73
2022/11/20 15:51:03;;;;;;;44.13;28.85;;;;;;;;;;5116389;28;20019;-72
2022/11/20 15:53:49;;;;;;;45.58;29.50;;;;;;;;;;5115673;28;20364;-74
2022/11/20 15:56:35;;;;;;;42.60;28.75;;;;;;;;;;5101344;28;20020;-73
2022/11/20 15:59:20;;;;;;;49.75;31.63;;;;;;;;;;5116388;28;20019;-73
2022/11/20 16:02:13;;;;;;;60.85;34.15;;;;;;;;;;5116304;28;20372;-74
2022/11/20 16:04:58;;;;;;;52.50;31.75;;;;;;;;;;5100835;28;20389;-73
2022/11/20 16:07:44;;;;;;;60.90;36.90;;;;;;;;;;5101423;28;20035;-73
2022/11/20 16:10:29;;;;;;;58.55;34.70;;;;;;;;;;5101987;28;20024;-73
2022/11/20 16:16:28;;;;;;;49.20;31.25;;;;;;;;;;5115339;28;20024;-73
2022/11/20 16:19:15;;;;;;;52.13;32.78;;;;;;;;;;5116143;28;20397;-72
2022/11/20 16:22:01;;;;;;;52.10;33.72;;;;;;;;;;5101155;28;20026;-73
2022/11/20 16:24:47;;;;;;;57.75;37.63;;;;;;;;;;5101814;28;20024;-73
2022/11/20 16:27:32;;;;;;;53.63;35.13;;;;;;;;;;5115582;28;20051;-72
2022/11/20 16:30:18;;;;;;;47.88;32.70;;;;;;;;;;5100961;28;20015;-72
2022/11/20 16:33:03;;;;;;;48.40;31.15;;;;;;;;;;5101754;28;20031;-73
2022/11/20 16:35:49;;;;;;;52.30;34.15;;;;;;;;;;5115316;28;20015;-74